createdAt,value
2022-09-30T00:01:47.617Z,6.80
2022-09-30T00:04:19.683Z,5.00
2022-09-30T00:06:48.809Z,5.30
2022-09-30T00:09:16.968Z,6.20
2022-09-30T00:11:46.808Z,5.40
2022-09-30T00:14:19.324Z,6.90
2022-09-30T00:16:47.640Z,3.80
2022-09-30T00:19:16.332Z,2.50
2022-09-30T00:21:44.623Z,6.10
2022-09-30T00:24:13.305Z,8.90
2022-09-30T00:26:41.330Z,3.00
2022-09-30T00:29:10.731Z,4.70
2022-09-30T00:31:39.550Z,4.80
2022-09-30T00:34:08.202Z,3.70
2022-09-30T00:36:49.797Z,3.00
2022-09-30T00:39:29.626Z,7.10
2022-09-30T00:42:00.884Z,2.80
2022-09-30T00:44:52.206Z,3.70
2022-09-30T00:47:38.170Z,2.50
2022-09-30T00:50:33.589Z,2.10
2022-09-30T00:53:30.013Z,3.00
2022-09-30T00:56:02.502Z,2.50
2022-09-30T00:58:39.203Z,4.30
2022-09-30T01:01:07.495Z,2.20
2022-09-30T01:03:45.386Z,4.80
2022-09-30T01:06:13.555Z,5.60
2022-09-30T01:08:42.565Z,4.10
2022-09-30T01:11:11.114Z,4.20
2022-09-30T01:13:41.339Z,2.90
2022-09-30T01:16:30.742Z,2.90
2022-09-30T01:19:43.635Z,3.50
2022-09-30T01:22:29.926Z,3.10
2022-09-30T01:25:34.996Z,3.80
2022-09-30T01:28:35.044Z,2.70
2022-09-30T01:31:44.076Z,1.80
2022-09-30T01:34:41.606Z,3.30
2022-09-30T01:37:48.116Z,5.50
2022-09-30T01:40:33.605Z,4.70
2022-09-30T01:43:21.825Z,2.20
2022-09-30T01:45:53.162Z,2.90
2022-09-30T01:48:27.170Z,4.70
2022-09-30T01:51:15.405Z,3.40
2022-09-30T01:53:55.838Z,4.90
2022-09-30T01:56:39.451Z,2.80
2022-09-30T01:59:30.018Z,3.80
2022-09-30T02:02:19.732Z,2.60
2022-09-30T02:05:12.754Z,2.50
2022-09-30T02:07:47.060Z,2.80
2022-09-30T02:10:45.115Z,5.10
2022-09-30T02:13:20.472Z,5.40
2022-09-30T02:15:56.516Z,3.60
2022-09-30T02:18:35.269Z,3.20
2022-09-30T02:21:07.436Z,4.30
2022-09-30T02:23:41.022Z,2.70
2022-09-30T02:26:20.944Z,3.80
2022-09-30T02:29:01.007Z,3.60
2022-09-30T02:31:32.598Z,2.30
2022-09-30T02:34:13.947Z,2.90
2022-09-30T02:37:11.120Z,3.50
2022-09-30T02:39:51.327Z,3.50
2022-09-30T02:42:29.582Z,3.10
2022-09-30T02:45:10.073Z,4.30
2022-09-30T02:48:09.205Z,5.60
2022-09-30T02:50:53.486Z,2.50
2022-09-30T02:53:28.011Z,4.10
2022-09-30T02:56:17.609Z,3.50
2022-09-30T02:58:47.280Z,5.20
2022-09-30T03:01:17.103Z,4.60
2022-09-30T03:03:45.115Z,3.20
2022-09-30T03:06:13.661Z,3.10
2022-09-30T03:08:42.511Z,1.90
2022-09-30T03:11:18.428Z,4.40
2022-09-30T03:14:34.302Z,2.80
2022-09-30T03:17:17.533Z,3.40
2022-09-30T03:20:04.329Z,4.30
2022-09-30T03:22:58.591Z,6.20
2022-09-30T03:25:59.604Z,4.40
2022-09-30T03:28:34.977Z,3.60
2022-09-30T03:31:12.750Z,4.20
2022-09-30T03:34:03.161Z,4.30
2022-09-30T03:36:48.653Z,3.60
2022-09-30T03:39:29.106Z,5.40
2022-09-30T03:42:08.179Z,10.20
2022-09-30T03:44:54.521Z,2.20
2022-09-30T03:47:25.404Z,3.20
2022-09-30T03:49:59.790Z,4.30
2022-09-30T03:52:31.300Z,3.20
2022-09-30T03:55:02.885Z,2.80
2022-09-30T03:57:31.268Z,2.60
2022-09-30T04:00:00.254Z,3.10
2022-09-30T04:02:28.623Z,2.40
2022-09-30T04:04:56.883Z,2.90
2022-09-30T04:07:25.581Z,3.70
2022-09-30T04:09:53.633Z,4.60
2022-09-30T04:12:21.707Z,2.80
2022-09-30T04:14:50.073Z,9.90
2022-09-30T04:17:18.445Z,4.40
2022-09-30T04:19:46.641Z,5.20
2022-09-30T04:22:14.802Z,3.00
2022-09-30T04:24:44.038Z,4.80
2022-09-30T04:27:12.343Z,4.30
2022-09-30T04:29:40.396Z,5.30
2022-09-30T04:32:08.488Z,3.80
2022-09-30T04:34:37.245Z,4.20
2022-09-30T04:37:10.597Z,5.10
2022-09-30T04:39:39.078Z,11.90
2022-09-30T04:42:07.378Z,7.80
2022-09-30T04:44:36.047Z,8.60
2022-09-30T04:47:04.536Z,9.40
2022-09-30T04:49:32.885Z,15.50
2022-09-30T04:52:01.147Z,12.20
2022-09-30T04:54:29.275Z,10.20
2022-09-30T04:56:57.395Z,5.20
2022-09-30T04:59:25.501Z,7.20
2022-09-30T05:01:53.700Z,5.90
2022-09-30T05:04:21.994Z,9.20
2022-09-30T05:06:50.053Z,7.00
2022-09-30T05:09:18.389Z,4.10
2022-09-30T05:11:46.811Z,13.80
2022-09-30T05:14:14.970Z,6.20
2022-09-30T05:16:43.130Z,6.20
2022-09-30T05:19:11.228Z,3.20
2022-09-30T05:21:39.539Z,7.30
2022-09-30T05:24:07.600Z,7.60
2022-09-30T05:26:35.736Z,5.90
2022-09-30T05:29:03.833Z,8.90
2022-09-30T05:31:31.952Z,5.00
2022-09-30T05:34:00.207Z,5.30
2022-09-30T05:36:28.320Z,5.00
2022-09-30T05:38:56.448Z,4.30
2022-09-30T05:41:24.895Z,5.70
2022-09-30T05:43:53.347Z,4.30
2022-09-30T05:46:21.545Z,6.00
2022-09-30T05:48:53.620Z,4.90
2022-09-30T05:51:22.581Z,4.60
2022-09-30T05:53:51.958Z,5.30
2022-09-30T05:56:20.010Z,5.20
2022-09-30T05:58:48.127Z,2.90
2022-09-30T06:01:16.444Z,4.40
2022-09-30T06:03:47.113Z,5.80
2022-09-30T06:06:17.082Z,6.10
2022-09-30T06:08:45.751Z,3.50
2022-09-30T06:11:17.104Z,4.70
2022-09-30T06:13:47.564Z,7.80
2022-09-30T06:16:18.556Z,14.50
2022-09-30T06:18:46.938Z,7.80
2022-09-30T06:21:18.260Z,4.60
2022-09-30T06:23:46.845Z,7.10
2022-09-30T06:26:15.445Z,5.90
2022-09-30T06:28:44.041Z,8.10
2022-09-30T06:31:12.818Z,4.40
2022-09-30T06:33:42.711Z,4.70
2022-09-30T06:36:11.181Z,6.70
2022-09-30T06:38:40.613Z,7.00
2022-09-30T06:41:08.935Z,6.60
2022-09-30T06:43:41.422Z,2.90
2022-09-30T06:46:23.149Z,6.00
2022-09-30T06:49:07.528Z,4.00
2022-09-30T06:51:39.280Z,3.70
2022-09-30T06:54:09.307Z,6.80
2022-09-30T06:56:37.616Z,4.40
2022-09-30T06:59:05.785Z,6.30
2022-09-30T07:15:19.736Z,5.00
2022-09-30T07:18:16.765Z,4.20
2022-09-30T07:21:39.738Z,2.70
2022-09-30T07:24:48.562Z,5.40
2022-09-30T07:27:50.556Z,5.10
2022-09-30T07:31:27.424Z,4.50
2022-09-30T07:34:18.730Z,2.30
2022-09-30T07:37:20.512Z,3.60
2022-09-30T07:40:37.999Z,5.30
2022-09-30T07:43:40.366Z,3.00
2022-09-30T07:46:11.325Z,2.30
2022-09-30T07:48:47.104Z,3.50
2022-09-30T07:51:31.569Z,1.80
2022-09-30T07:54:08.116Z,3.50
2022-09-30T07:57:22.270Z,9.90
2022-09-30T07:59:50.576Z,3.60
2022-09-30T08:02:20.958Z,1.70
2022-09-30T08:05:06.554Z,2.00
2022-09-30T08:07:34.774Z,2.60
2022-09-30T08:10:02.972Z,5.10
2022-09-30T08:12:31.393Z,4.10
2022-09-30T08:14:59.511Z,3.00
2022-09-30T08:17:28.783Z,2.90
2022-09-30T08:19:56.998Z,5.20
2022-09-30T08:22:26.081Z,4.00
2022-09-30T08:24:54.240Z,2.00
2022-09-30T08:27:23.602Z,2.00
2022-09-30T08:29:55.793Z,2.70
2022-09-30T08:32:26.404Z,2.30
2022-09-30T08:34:54.593Z,1.60
2022-09-30T08:37:23.907Z,1.90
2022-09-30T08:39:52.062Z,3.70
2022-09-30T08:42:41.615Z,3.00
2022-09-30T08:45:40.908Z,1.40
2022-09-30T08:48:29.127Z,3.30
2022-09-30T08:51:15.333Z,5.50
2022-09-30T08:53:48.923Z,2.60
2022-09-30T08:56:53.351Z,2.60
2022-09-30T08:59:34.427Z,3.50
2022-09-30T09:02:27.827Z,2.50
2022-09-30T09:05:39.487Z,5.20
2022-09-30T09:09:04.846Z,3.20
2022-09-30T09:12:10.909Z,3.70
2022-09-30T09:14:54.818Z,3.60
2022-09-30T09:17:37.189Z,3.20
2022-09-30T09:20:17.405Z,6.40
2022-09-30T09:22:47.169Z,2.70
2022-09-30T09:25:23.361Z,2.60
2022-09-30T09:28:03.734Z,2.50
2022-09-30T09:30:48.740Z,3.80
2022-09-30T09:33:23.225Z,3.70
2022-09-30T09:36:08.668Z,1.90
2022-09-30T09:38:55.458Z,2.50
2022-09-30T09:41:54.289Z,6.10
2022-09-30T09:44:34.407Z,2.10
2022-09-30T09:47:15.527Z,5.00
2022-09-30T09:49:56.846Z,3.60
2022-09-30T09:52:51.311Z,4.10
2022-09-30T09:58:10.914Z,4.50
2022-09-30T10:00:48.016Z,2.50
2022-09-30T10:03:37.649Z,4.60
2022-09-30T10:06:13.491Z,3.30
2022-09-30T10:09:01.795Z,3.90
2022-09-30T10:11:31.244Z,4.30
2022-09-30T10:14:01.403Z,6.30
2022-09-30T10:16:43.889Z,5.40
2022-09-30T10:19:29.001Z,2.20
2022-09-30T10:22:31.943Z,5.90
2022-09-30T10:25:14.159Z,5.40
2022-09-30T10:28:02.175Z,5.00
2022-09-30T10:30:52.594Z,3.90
2022-09-30T10:33:33.812Z,7.90
2022-09-30T12:48:55.232Z,2.90
2022-09-30T12:51:33.904Z,3.10
2022-09-30T12:54:32.197Z,1.70
2022-09-30T12:57:03.357Z,4.70
2022-09-30T12:59:34.251Z,4.00
2022-09-30T13:02:03.945Z,0.90
2022-09-30T13:04:42.263Z,2.30
2022-09-30T13:07:17.590Z,2.40
2022-09-30T13:09:56.345Z,2.00
2022-09-30T13:12:47.113Z,0.80
2022-09-30T13:15:29.154Z,1.20
2022-09-30T13:18:26.461Z,0.90
2022-09-30T13:21:03.865Z,2.80
2022-09-30T13:23:40.970Z,3.20
2022-09-30T13:26:26.568Z,1.40
2022-09-30T13:29:00.231Z,1.30
2022-09-30T13:31:26.909Z,1.80
2022-09-30T13:34:00.896Z,2.70
2022-09-30T13:36:39.058Z,1.20
2022-09-30T13:39:25.188Z,4.50
2022-09-30T13:42:06.758Z,1.20
2022-09-30T13:44:48.574Z,1.60
2022-09-30T13:47:29.903Z,4.10
2022-09-30T13:50:11.827Z,3.70
2022-09-30T13:52:41.368Z,2.80
2022-09-30T13:55:22.087Z,1.90
2022-09-30T13:58:11.513Z,1.60
2022-09-30T14:01:05.699Z,2.20
2022-09-30T14:04:03.444Z,1.30
2022-09-30T14:07:10.751Z,3.10
2022-09-30T14:10:19.611Z,1.40
2022-09-30T14:13:05.374Z,5.10
2022-09-30T14:15:35.433Z,1.10
2022-09-30T14:18:08.050Z,1.30
2022-09-30T14:20:46.683Z,0.60
2022-09-30T14:23:15.680Z,2.10
2022-09-30T14:26:35.305Z,1.40
2022-09-30T14:29:23.174Z,1.90
2022-09-30T14:31:50.060Z,4.40
2022-09-30T14:34:20.373Z,2.10
2022-09-30T14:36:50.073Z,2.50
2022-09-30T14:39:22.362Z,3.10
2022-09-30T14:41:54.219Z,7.30
2022-09-30T14:44:23.449Z,4.40
2022-09-30T14:46:52.099Z,0.80
2022-09-30T14:49:34.285Z,1.30
2022-09-30T14:52:03.400Z,2.50
2022-09-30T14:54:32.310Z,1.00
2022-09-30T14:57:02.521Z,3.90
2022-09-30T14:59:32.639Z,0.70
2022-09-30T15:02:21.910Z,1.00
2022-09-30T15:05:06.241Z,5.70
2022-09-30T15:07:33.201Z,4.80
2022-09-30T15:10:02.083Z,2.30
2022-09-30T15:12:29.201Z,3.30
2022-09-30T15:15:00.304Z,2.70
2022-09-30T15:17:38.137Z,2.00
2022-09-30T15:20:37.298Z,3.00
2022-09-30T15:23:23.630Z,1.70
2022-09-30T15:25:54.094Z,1.70
2022-09-30T15:28:21.453Z,3.60
2022-09-30T15:30:53.645Z,4.50
2022-09-30T15:33:27.453Z,0.80
2022-09-30T15:36:29.729Z,2.00
2022-09-30T15:39:21.148Z,1.50
2022-09-30T15:41:49.122Z,1.70
2022-09-30T15:44:37.978Z,8.50
2022-09-30T15:47:11.049Z,3.00
2022-09-30T15:50:01.067Z,3.50
2022-09-30T15:52:39.630Z,2.30
2022-09-30T15:55:43.083Z,5.40
2022-09-30T15:58:33.091Z,4.80
2022-09-30T16:02:01.120Z,4.10
2022-09-30T16:05:21.092Z,4.40
2022-09-30T16:08:50.380Z,3.00
2022-09-30T16:12:06.873Z,2.90
2022-09-30T16:15:38.801Z,9.90
2022-09-30T16:18:05.772Z,4.70
2022-09-30T16:20:32.902Z,2.70
2022-09-30T16:23:02.026Z,5.70
2022-09-30T16:25:32.982Z,3.10
2022-09-30T16:28:02.507Z,4.00
2022-09-30T16:30:53.789Z,5.10
2022-09-30T16:33:44.383Z,7.40
2022-09-30T16:36:53.662Z,9.20
2022-09-30T16:39:42.143Z,9.10
2022-09-30T16:42:14.303Z,4.10
2022-09-30T16:44:43.971Z,11.20
2022-09-30T16:47:38.425Z,8.40
2022-09-30T16:50:29.856Z,2.70
2022-09-30T16:52:56.767Z,2.50
2022-09-30T16:55:25.964Z,5.00
2022-09-30T16:57:56.743Z,7.70
2022-09-30T17:00:43.835Z,7.60
2022-09-30T17:03:15.581Z,22.00
2022-09-30T17:06:03.489Z,8.60
2022-09-30T17:08:30.580Z,19.90
2022-09-30T17:10:57.951Z,10.70
2022-09-30T17:13:26.329Z,11.40
2022-09-30T17:15:54.531Z,4.40
2022-09-30T17:18:21.590Z,42.30
2022-09-30T17:20:53.408Z,43.90
2022-09-30T17:23:23.204Z,18.10
2022-09-30T17:25:53.248Z,15.40
2022-09-30T17:28:21.605Z,15.50
2022-09-30T17:30:50.391Z,12.30
2022-09-30T17:33:20.557Z,12.90
2022-09-30T17:35:58.952Z,12.00
2022-09-30T17:38:26.113Z,7.60
2022-09-30T17:41:11.523Z,5.10
2022-09-30T17:43:44.491Z,6.00
2022-09-30T17:46:18.038Z,5.60
2022-09-30T17:48:46.184Z,7.60
2022-09-30T17:51:17.808Z,5.10
2022-09-30T17:53:45.114Z,7.90
2022-09-30T17:56:21.794Z,6.40
2022-09-30T17:58:50.122Z,9.30
2022-09-30T18:01:20.230Z,14.60
2022-09-30T18:03:59.978Z,15.10
2022-09-30T18:06:28.235Z,15.40
2022-09-30T18:09:55.614Z,16.10
2022-09-30T18:13:25.197Z,19.40
2022-09-30T18:17:09.062Z,11.00
2022-09-30T18:19:36.023Z,5.00
2022-09-30T18:22:03.038Z,7.50
2022-09-30T18:24:48.554Z,7.90
2022-09-30T18:28:15.889Z,3.50
2022-09-30T18:31:43.891Z,4.70
2022-09-30T18:34:12.699Z,7.30
2022-09-30T18:36:39.832Z,5.20
2022-09-30T18:39:06.867Z,6.40
2022-09-30T18:42:12.141Z,5.50
2022-09-30T18:44:39.711Z,5.00
2022-09-30T18:47:06.665Z,5.80
2022-09-30T18:49:33.724Z,6.10
2022-09-30T18:52:01.528Z,4.40
2022-09-30T18:54:29.447Z,4.60
2022-09-30T18:56:56.386Z,6.70
2022-09-30T18:59:24.152Z,7.00
2022-09-30T19:02:37.165Z,4.90
2022-09-30T19:05:05.361Z,3.80
2022-09-30T19:07:34.650Z,3.50
2022-09-30T19:10:09.530Z,3.60
2022-09-30T19:12:37.652Z,2.30
2022-09-30T19:15:07.259Z,3.00
2022-09-30T19:17:36.619Z,3.10
2022-09-30T19:20:05.518Z,2.20
2022-09-30T19:22:39.560Z,2.60
2022-09-30T19:25:11.947Z,4.60
2022-09-30T19:27:40.745Z,4.30
2022-09-30T19:30:10.681Z,3.00
2022-09-30T19:32:38.493Z,1.80
2022-09-30T19:35:11.221Z,2.90
2022-09-30T19:37:42.019Z,3.10
2022-09-30T19:40:21.035Z,1.50
2022-09-30T19:42:49.995Z,2.10
2022-09-30T19:45:22.267Z,1.60
2022-09-30T19:47:50.820Z,3.10
2022-09-30T19:50:18.472Z,1.80
2022-09-30T19:52:56.394Z,1.60
2022-09-30T19:55:25.624Z,4.30
2022-09-30T19:57:52.970Z,5.80
2022-09-30T20:00:20.075Z,2.90
2022-09-30T20:02:47.010Z,2.40
2022-09-30T20:06:04.878Z,2.50
2022-09-30T20:09:51.932Z,2.00
2022-09-30T20:13:39.846Z,2.80
2022-09-30T20:16:22.967Z,2.80
2022-09-30T20:18:50.444Z,4.40
2022-09-30T20:21:17.584Z,3.80
2022-09-30T20:23:45.373Z,4.00
2022-09-30T20:26:14.918Z,2.50
2022-09-30T20:28:41.823Z,4.50
2022-09-30T20:31:14.175Z,1.90
2022-09-30T20:33:42.052Z,3.10
2022-09-30T20:36:10.619Z,1.70
2022-09-30T20:38:38.997Z,4.50
2022-09-30T20:41:06.389Z,4.90
2022-09-30T20:43:34.709Z,2.30
2022-09-30T20:46:04.748Z,2.40
2022-09-30T20:48:33.813Z,2.00
2022-09-30T20:51:09.524Z,3.40
2022-09-30T20:53:38.992Z,1.80
2022-09-30T20:56:14.762Z,2.70
2022-09-30T20:58:41.798Z,5.30
2022-09-30T21:02:09.207Z,5.80
2022-09-30T21:05:56.574Z,3.10
2022-09-30T21:09:34.018Z,5.70
2022-09-30T21:12:01.529Z,5.90
2022-09-30T21:14:28.519Z,5.80
2022-09-30T21:17:17.124Z,1.80
2022-09-30T21:19:43.983Z,4.60
2022-09-30T21:22:10.870Z,2.90
2022-09-30T21:24:37.868Z,4.60
2022-09-30T21:27:05.344Z,2.60
2022-09-30T21:29:32.456Z,3.20
2022-09-30T21:31:59.601Z,6.60
2022-09-30T21:34:26.677Z,2.90
2022-09-30T21:36:53.608Z,3.80
2022-09-30T21:39:20.574Z,5.40
2022-09-30T21:41:47.835Z,3.80
2022-09-30T21:44:15.536Z,7.80
2022-09-30T21:46:47.491Z,5.50
2022-09-30T21:49:16.626Z,5.20
2022-09-30T21:52:44.161Z,4.00
2022-09-30T21:56:28.550Z,3.60
2022-09-30T21:59:47.382Z,3.20
2022-09-30T22:02:35.808Z,3.20
2022-09-30T22:05:04.603Z,2.20
2022-09-30T22:07:32.563Z,2.30
2022-09-30T22:09:59.504Z,3.70
2022-09-30T22:12:26.485Z,2.80
2022-09-30T22:14:53.486Z,3.40
2022-09-30T22:17:20.419Z,4.50
2022-09-30T22:19:47.472Z,2.50
2022-09-30T22:22:56.424Z,1.90
2022-09-30T22:25:31.293Z,2.20
2022-09-30T22:27:58.907Z,3.80
2022-09-30T22:30:28.751Z,2.10
2022-09-30T22:33:54.975Z,3.80
2022-09-30T22:37:23.028Z,2.30
2022-09-30T22:39:50.108Z,3.40
2022-09-30T22:42:17.658Z,2.60
2022-09-30T22:46:02.710Z,1.40
2022-09-30T22:48:31.421Z,3.20
2022-09-30T22:50:59.190Z,2.00
2022-09-30T22:54:08.965Z,2.90
2022-09-30T22:57:20.712Z,3.00
2022-09-30T22:59:47.853Z,2.80
2022-09-30T23:02:14.986Z,2.50
2022-09-30T23:04:43.734Z,1.70
2022-09-30T23:07:10.686Z,1.50
2022-09-30T23:09:37.637Z,2.10
2022-09-30T23:12:04.645Z,1.80
2022-09-30T23:14:31.649Z,1.30
2022-09-30T23:16:58.692Z,3.40
2022-09-30T23:19:25.718Z,3.00
2022-09-30T23:21:53.178Z,4.20
2022-09-30T23:25:20.335Z,2.80
2022-09-30T23:28:48.684Z,3.00
2022-09-30T23:32:16.830Z,3.00
2022-09-30T23:35:48.380Z,2.80
2022-09-30T23:38:55.927Z,4.70
2022-09-30T23:41:22.862Z,1.60
2022-09-30T23:43:49.849Z,2.40
2022-09-30T23:46:19.288Z,2.60
2022-09-30T23:49:46.347Z,3.10
2022-09-30T23:53:34.045Z,1.60
2022-09-30T23:57:21.482Z,3.90
